Time;durP1;ratioP1;P1;durP2;ratioP2;P2;SDS_P1;SDS_P2;PMS_P1;PMS_P2;Temp;Humidity;BMP_temperature;BMP_pressure;BME280_temperature;BME280_humidity;BME280_pressure;Samples;Min_cycle;Max_cycle;Signal;HPM_P1;HPM_P2
2022/05/30 00:01:22;;;;;;;;;10.50;10.50;;;;;10.81;94.60;98967.72;6284086;20;2788849;-50
2022/05/30 00:03:53;;;;;;;;;11.80;8.80;;;;;11.02;94.41;98970.63;6312018;20;2777426;-51
2022/05/30 00:06:23;;;;;;;;;10.00;10.00;;;;;10.72;95.70;98971.94;6283881;20;2796118;-50
2022/05/30 00:08:51;;;;;;;;;12.00;10.00;;;;;10.64;96.00;98972.50;6284398;20;2794023;-54
2022/05/30 00:11:21;;;;;;;;;8.20;8.20;;;;;10.74;96.27;98976.25;6308396;20;2766921;-60
2022/05/30 00:13:50;;;;;;;;;15.20;11.00;;;;;10.93;95.18;98977.56;6304955;20;2796145;-61
2022/05/30 00:16:22;;;;;;;;;9.50;9.50;;;;;10.84;95.90;98967.50;6285018;20;2761710;-61
2022/05/30 00:18:51;;;;;;;;;8.50;8.50;;;;;10.80;95.31;98972.25;6287168;20;2752400;-61
2022/05/30 00:21:22;;;;;;;;;12.50;10.50;;;;;10.52;96.93;98962.66;6281041;20;2788926;-58
2022/05/30 00:23:53;;;;;;;;;9.00;9.00;;;;;10.32;97.87;98956.03;6284890;20;2746115;-57
2022/05/30 00:26:25;;;;;;;;;8.00;8.00;;;;;10.33;97.93;98961.31;6288658;20;2751325;-55
2022/05/30 00:28:53;;;;;;;;;10.33;10.00;;;;;10.61;96.39;98958.44;6280364;20;2785675;-53
2022/05/30 00:31:23;;;;;;;;;12.00;11.00;;;;;10.56;95.61;98950.75;6315777;20;2790985;-54
2022/05/30 00:33:51;;;;;;;;;10.50;9.00;;;;;10.46;97.18;98952.38;6285007;20;2770172;-52
2022/05/30 00:36:22;;;;;;;;;10.00;9.43;;;;;10.59;96.03;98947.84;6322439;20;1814902;-61
2022/05/30 00:38:51;;;;;;;;;9.67;9.67;;;;;10.58;95.52;98946.09;6312611;20;2766033;-53
2022/05/30 00:41:19;;;;;;;;;11.50;8.00;;;;;10.57;95.17;98939.03;6313167;20;2773210;-52
2022/05/30 00:43:47;;;;;;;;;8.50;7.00;;;;;10.57;94.85;98939.03;6288072;20;2742974;-61
2022/05/30 00:46:18;;;;;;;;;9.00;8.00;;;;;10.60;93.94;98938.78;6283339;20;2752371;-61
2022/05/30 00:48:55;;;;;;;;;8.00;8.00;;;;;10.66;93.89;98930.28;6300318;20;1812892;-57
2022/05/30 00:51:36;;;;;;;;;8.00;6.50;;;;;10.66;93.68;98927.59;6317267;20;2742033;-50
2022/05/30 00:54:09;;;;;;;;;8.00;7.00;;;;;10.62;93.77;98923.44;6280707;20;2752406;-53
2022/05/30 00:56:45;;;;;;;;;8.00;8.00;;;;;10.54;93.46;98928.53;6281289;20;2756497;-53
2022/05/30 00:59:15;;;;;;;;;9.20;8.00;;;;;10.66;92.79;98927.59;6303707;20;2751353;-53
2022/05/30 01:01:43;;;;;;;;;5.50;5.50;;;;;10.59;93.27;98925.50;6285817;20;2734779;-50
2022/05/30 01:07:08;;;;;;;;;8.00;8.00;;;;;10.47;93.68;98912.00;6285955;20;2735779;-49
2022/05/30 01:09:41;;;;;;;;;7.33;7.33;;;;;10.54;93.10;98912.41;6323656;20;1814973;-53
2022/05/30 01:12:12;;;;;;;;;7.50;6.00;;;;;10.57;91.98;98911.34;6288307;20;2740902;-56
2022/05/30 01:14:43;;;;;;;;;8.00;8.00;;;;;10.77;91.54;98913.41;6315131;20;2731545;-61
2022/05/30 01:17:16;;;;;;;;;6.50;6.50;;;;;10.79;91.51;98910.59;6284039;20;2737842;-50
2022/05/30 01:20:10;;;;;;;;;10.00;9.00;;;;;10.77;91.80;98908.88;6314422;20;2754457;-58
2022/05/30 01:23:15;;;;;;;;;5.00;5.00;;;;;10.74;91.06;98909.13;6282974;20;2733706;-55
2022/05/30 01:26:10;;;;;;;;;11.00;8.00;;;;;10.85;90.66;98902.06;6282560;20;2755471;-61
2022/05/30 01:29:01;;;;;;;;;9.50;7.50;;;;;10.93;91.40;98907.72;6285717;20;2749216;-56
2022/05/30 01:31:30;;;;;;;;;8.00;8.00;;;;;11.17;90.65;98911.22;6280479;20;2752403;-56
2022/05/30 01:33:59;;;;;;;;;9.25;8.00;;;;;11.15;90.79;98907.78;6299579;20;1817062;-61
2022/05/30 01:36:31;;;;;;;;;7.00;7.00;;;;;11.12;90.83;98908.03;6315809;20;2748210;-61
2022/05/30 01:38:59;;;;;;;;;9.00;8.00;;;;;11.14;91.34;98906.09;6283114;20;2734650;-56
2022/05/30 01:41:27;;;;;;;;;9.00;9.00;;;;;11.06;93.25;98899.56;6283461;20;2735703;-52
2022/05/30 01:43:57;;;;;;;;;8.60;8.60;;;;;10.85;93.93;98910.13;6339987;20;2750258;-55
2022/05/30 01:46:26;;;;;;;;;6.00;6.00;;;;;10.76;93.64;98917.88;6316430;20;2739899;-51
2022/05/30 01:48:54;;;;;;;;;7.00;7.00;;;;;10.88;93.14;98905.38;6316404;20;2737900;-56
2022/05/30 01:51:23;;;;;;;;;13.00;10.00;;;;;10.96;92.18;98907.50;6311571;20;2782589;-56
2022/05/30 01:53:51;;;;;;;;;7.50;7.50;;;;;11.12;91.44;98915.25;6286035;20;2744077;-54
2022/05/30 01:56:21;;;;;;;;;7.00;7.00;;;;;11.22;91.03;98908.19;6308046;20;2742969;-55
2022/05/30 01:58:49;;;;;;;;;7.00;7.00;;;;;11.08;91.64;98901.16;6314540;20;2733630;-60
2022/05/30 02:01:26;;;;;;;;;8.00;8.00;;;;;11.15;91.42;98902.44;6280158;20;2735673;-55
2022/05/30 02:03:56;;;;;;;;;8.00;7.00;;;;;11.25;91.45;98907.09;6285194;20;2748170;-60
2022/05/30 02:06:28;;;;;;;;;6.50;6.50;;;;;11.03;92.35;98905.19;6282201;20;2738807;-56
2022/05/30 02:09:00;;;;;;;;;9.00;8.00;;;;;11.07;92.35;98896.78;6327789;20;3464810;-56
2022/05/30 02:11:28;;;;;;;;;7.00;7.00;;;;;11.31;91.06;98901.25;6312270;20;2736860;-53
2022/05/30 02:13:56;;;;;;;;;11.00;7.00;;;;;11.10;91.33;98904.59;6273702;20;2775799;-60
2022/05/30 02:19:10;;;;;;;;;10.00;10.00;;;;;11.28;91.90;98896.97;6278436;20;2773207;-60
2022/05/30 02:21:38;;;;;;;;;9.00;9.00;;;;;11.47;89.83;98907.13;6282691;20;2744004;-57
2022/05/30 02:24:07;;;;;;;;;7.00;7.00;;;;;11.61;89.20;98906.94;6282197;20;2736790;-55
2022/05/30 02:26:38;;;;;;;;;8.86;8.86;;;;;11.51;89.61;98903.25;6322613;20;1802397;-57
2022/05/30 02:29:07;;;;;;;;;6.50;6.00;;;;;11.60;88.99;98901.66;6314350;20;2746123;-61
2022/05/30 02:31:35;;;;;;;;;9.50;8.50;;;;;11.55;88.83;98903.84;6282646;20;2753413;-55
2022/05/30 02:36:52;;;;;;;;;9.00;9.00;;;;;11.51;89.20;98911.31;6280797;20;2754404;-57
2022/05/30 02:39:25;;;;;;;;;8.00;6.40;;;;;11.50;89.89;98912.28;6310118;20;2739837;-61
2022/05/30 02:41:54;;;;;;;;;9.00;9.00;;;;;11.58;89.42;98917.06;6311318;20;2748193;-61
2022/05/30 02:44:25;;;;;;;;;7.00;7.00;;;;;11.48;89.51;98925.00;6286598;20;2740254;-61
2022/05/30 02:46:57;;;;;;;;;9.00;9.00;;;;;11.48;90.13;98930.38;6280831;20;2749244;-54
2022/05/30 02:49:27;;;;;;;;;12.50;11.00;;;;;11.41;90.61;98934.50;6285660;20;2798190;-57
2022/05/30 02:51:57;;;;;;;;;13.40;9.20;;;;;11.58;89.73;98941.25;6311687;20;2779467;-56
2022/05/30 02:54:29;;;;;;;;;10.00;8.71;;;;;11.55;90.07;98942.34;6329653;20;1800305;-55
2022/05/30 02:56:59;;;;;;;;;9.00;9.00;;;;;11.67;89.14;98945.06;6312040;20;2764879;-55
2022/05/30 02:59:29;;;;;;;;;12.50;8.50;;;;;11.60;88.18;98940.16;6286310;20;2775350;-55
2022/05/30 03:01:56;;;;;;;;;9.00;9.00;;;;;11.65;88.20;98940.66;6289157;20;2748250;-55
2022/05/30 03:04:24;;;;;;;;;10.50;10.50;;;;;11.82;87.55;98935.78;6284677;20;2788848;-56
2022/05/30 03:06:52;;;;;;;;;10.00;10.00;;;;;11.77;87.67;98933.47;6285845;20;2783671;-60
2022/05/30 03:09:24;;;;;;;;;9.57;9.57;;;;;11.72;87.52;98950.97;6327418;20;1810696;-58
2022/05/30 03:11:51;;;;;;;;;11.00;10.00;;;;;11.78;87.71;98945.94;6317344;20;2771075;-58
2022/05/30 03:14:19;;;;;;;;;11.00;11.00;;;;;11.85;88.59;98943.63;6286122;20;2782550;-61
2022/05/30 03:16:47;;;;;;;;;10.00;8.00;;;;;11.88;87.77;98946.13;6289795;20;2762960;-61
2022/05/30 03:19:17;;;;;;;;;12.40;10.20;;;;;11.72;89.21;98959.88;6309936;20;2787805;-61
2022/05/30 03:21:45;;;;;;;;;11.00;9.00;;;;;11.86;89.15;98956.13;6284477;20;2778510;-54
2022/05/30 03:24:13;;;;;;;;;10.33;10.33;;;;;11.89;89.48;98966.66;6286398;20;2791120;-61
2022/05/30 03:26:43;;;;;;;;;11.80;9.40;;;;;11.95;89.76;98970.69;6337861;20;2769079;-61
2022/05/30 03:29:13;;;;;;;;;12.00;11.00;;;;;11.88;88.65;98975.69;6306787;20;2794029;-55
2022/05/30 03:31:41;;;;;;;;;9.00;9.00;;;;;11.97;88.04;98969.59;6285063;20;2758620;-55
2022/05/30 03:34:09;;;;;;;;;10.50;10.50;;;;;11.93;87.58;98970.81;6285937;20;2786750;-51
2022/05/30 03:36:38;;;;;;;;;10.40;8.00;;;;;11.90;87.90;98965.69;6312209;20;2760765;-59
2022/05/30 03:39:07;;;;;;;;;8.25;8.25;;;;;11.97;87.45;98966.03;6335270;20;1791821;-56
2022/05/30 03:41:35;;;;;;;;;8.00;7.50;;;;;12.10;86.90;98965.94;6316596;20;2743034;-54
2022/05/30 03:44:03;;;;;;;;;10.00;10.00;;;;;12.10;87.21;98976.69;6286615;20;2790897;-61
2022/05/30 03:46:32;;;;;;;;;9.00;9.00;;;;;12.12;85.60;98983.66;6285734;20;2746115;-61
2022/05/30 03:49:00;;;;;;;;;6.50;6.50;;;;;12.17;85.46;98986.00;6286698;20;2739961;-61
2022/05/30 03:51:30;;;;;;;;;10.20;8.00;;;;;12.07;85.67;98983.16;6306252;20;2769574;-56
2022/05/30 03:53:58;;;;;;;;;7.50;7.50;;;;;12.13;85.44;98974.59;6286025;20;2748205;-59
2022/05/30 03:56:25;;;;;;;;;10.00;10.00;;;;;12.29;84.79;98974.25;6283017;20;2782609;-55
2022/05/30 03:58:53;;;;;;;;;6.00;6.00;;;;;12.40;84.42;98968.88;6286617;20;2736088;-61
2022/05/30 04:01:21;;;;;;;;;6.50;6.50;;;;;12.45;84.04;98979.25;6278375;20;2739886;-61
2022/05/30 04:03:49;;;;;;;;;7.00;5.00;;;;;12.57;82.98;98977.41;6289566;20;2733590;-54
2022/05/30 04:06:16;;;;;;;;;6.00;6.00;;;;;12.44;83.94;98978.41;6286910;20;2738828;-55
2022/05/30 04:08:46;;;;;;;;;7.00;7.00;;;;;12.47;83.49;98979.97;6286184;20;2742964;-57
2022/05/30 04:11:13;;;;;;;;;6.50;6.50;;;;;12.42;84.11;98991.13;6283579;20;2740876;-54
2022/05/30 04:13:41;;;;;;;;;8.00;8.00;;;;;12.66;84.10;98984.72;6286616;20;2752351;-58
2022/05/30 04:16:14;;;;;;;;;7.00;7.00;;;;;12.65;83.54;98985.72;6284441;20;3443999;-55
2022/05/30 04:18:45;;;;;;;;;7.14;7.14;;;;;12.73;83.07;98978.72;6326911;20;1797173;-57
2022/05/30 04:21:13;;;;;;;;;9.00;8.00;;;;;12.93;82.70;98984.31;6314297;20;2750289;-58
2022/05/30 04:23:43;;;;;;;;;9.50;7.00;;;;;13.12;81.69;98978.25;6281544;20;2738930;-54
2022/05/30 04:26:15;;;;;;;;;8.00;6.00;;;;;13.18;80.86;98983.13;6288308;20;2748213;-54
2022/05/30 04:28:44;;;;;;;;;8.00;7.00;;;;;13.39;82.16;98996.66;6292709;20;2739823;-57
2022/05/30 04:31:13;;;;;;;;;8.00;6.00;;;;;13.38;81.23;98992.28;6289466;20;2741929;-55
2022/05/30 04:33:42;;;;;;;;;7.00;6.00;;;;;13.35;82.22;98990.69;6289512;20;2741019;-54
2022/05/30 04:36:13;;;;;;;;;9.00;9.00;;;;;13.43;81.69;98989.16;6278044;20;2746527;-61
2022/05/30 04:38:42;;;;;;;;;7.50;7.50;;;;;13.56;80.06;98988.03;6282284;20;2744213;-55
2022/05/30 04:41:11;;;;;;;;;6.00;6.00;;;;;13.66;79.81;99006.94;6280534;20;2739946;-58
2022/05/30 04:43:38;;;;;;;;;5.00;5.00;;;;;13.81;78.98;99008.34;6290207;20;2752403;-59
2022/05/30 04:46:19;;;;;;;;;7.00;7.00;;;;;13.62;81.18;99008.22;6289923;20;2730503;-54
2022/05/30 04:48:48;;;;;;;;;8.00;8.00;;;;;13.72;80.68;99003.75;6287882;20;2747217;-59
2022/05/30 04:51:16;;;;;;;;;11.50;8.00;;;;;13.78;80.23;99022.09;6285324;20;2764913;-57
2022/05/30 04:53:44;;;;;;;;;9.00;9.00;;;;;13.81;81.94;99024.53;6290688;20;2744065;-59
2022/05/30 04:56:12;;;;;;;;;11.00;7.00;;;;;13.69;79.72;99025.59;6284204;20;2760671;-57
2022/05/30 04:58:41;;;;;;;;;6.00;6.00;;;;;13.69;80.33;99035.50;6291767;20;2739828;-57
2022/05/30 05:01:10;;;;;;;;;9.00;9.00;;;;;13.94;80.91;99034.28;6285520;20;2738265;-59
2022/05/30 05:03:40;;;;;;;;;9.00;8.00;;;;;14.03;79.49;99041.56;6287230;20;2751331;-59
2022/05/30 05:06:17;;;;;;;;;6.50;6.50;;;;;14.06;79.20;99033.25;6285860;20;2733754;-54
2022/05/30 05:09:29;;;;;;;;;12.00;9.00;;;;;14.11;79.56;99039.06;6285380;20;2763795;-53
2022/05/30 05:11:57;;;;;;;;;9.00;7.50;;;;;13.99;79.79;99040.16;6287007;20;2746131;-56
2022/05/30 05:14:28;;;;;;;;;9.00;9.00;;;;;14.25;78.99;99037.88;6286457;20;2744139;-52
2022/05/30 05:16:56;;;;;;;;;7.00;7.00;;;;;14.28;77.17;99038.47;6287382;20;2750276;-51
2022/05/30 05:19:24;;;;;;;;;9.00;9.00;;;;;14.40;78.23;99054.56;6291147;20;2736716;-54
2022/05/30 05:21:52;;;;;;;;;8.50;8.00;;;;;14.35;77.92;99052.31;6281063;20;2746107;-49
2022/05/30 05:24:20;;;;;;;;;11.00;8.50;;;;;14.38;77.35;99056.59;6288916;20;2771098;-51
2022/05/30 05:26:51;;;;;;;;;9.20;8.00;;;;;14.52;76.98;99049.97;6313387;20;2760714;-55
2022/05/30 05:29:19;;;;;;;;;7.50;7.50;;;;;14.67;77.66;99064.84;6286238;20;2746165;-52
2022/05/30 05:31:48;;;;;;;;;60.00;48.50;;;;;14.61;77.33;99068.06;6286197;20;2856611;-54
2022/05/30 05:34:17;;;;;;;;;8.00;8.00;;;;;14.92;76.10;99071.63;6289865;20;2746093;-52
2022/05/30 05:36:48;;;;;;;;;8.40;7.20;;;;;15.26;75.86;99072.13;6308449;20;2747203;-53
2022/05/30 05:39:18;;;;;;;;;7.00;7.00;;;;;15.15;74.99;99075.81;6321320;20;2737880;-54
2022/05/30 05:41:46;;;;;;;;;7.00;7.00;;;;;15.41;73.74;99072.59;6287591;20;2744008;-54
2022/05/30 05:44:18;;;;;;;;;6.71;6.71;;;;;15.49;72.45;99086.28;6330193;20;3449215;-50
2022/05/30 05:46:47;;;;;;;;;6.50;6.50;;;;;15.56;71.44;99087.44;6319443;20;2740971;-51
2022/05/30 05:49:15;;;;;;;;;10.00;6.50;;;;;15.90;71.39;99089.72;6289260;20;2751291;-49
2022/05/30 05:51:43;;;;;;;;;6.00;6.00;;;;;15.57;70.92;99086.41;6290738;20;2733592;-55
2022/05/30 05:54:12;;;;;;;;;7.20;6.80;;;;;15.67;71.29;99091.00;6313446;20;2750358;-53
2022/05/30 05:56:43;;;;;;;;;7.86;7.43;;;;;15.89;70.58;99098.84;6360375;20;1796097;-52
2022/05/30 05:59:16;;;;;;;;;7.00;6.43;;;;;16.17;69.57;99099.00;6363308;20;3448137;-51
2022/05/30 06:01:43;;;;;;;;;7.00;7.00;;;;;15.92;71.88;99097.72;6319619;20;2746098;-53
2022/05/30 06:04:12;;;;;;;;;9.00;7.00;;;;;16.15;71.35;99095.56;6289324;20;2744009;-54
2022/05/30 06:06:42;;;;;;;;;8.40;6.00;;;;;16.61;67.11;99107.44;6310441;20;2738892;-48
2022/05/30 06:09:14;;;;;;;;;6.00;6.00;;;;;16.31;71.45;99103.94;6318488;20;2741917;-50
2022/05/30 06:11:41;;;;;;;;;6.00;6.00;;;;;16.32;70.44;99112.91;6289056;20;2721107;-54
2022/05/30 06:14:09;;;;;;;;;9.00;9.00;;;;;16.75;70.56;99104.25;6282942;20;2758615;-53
2022/05/30 06:16:40;;;;;;;;;7.50;7.50;;;;;16.81;67.93;99119.97;6287489;20;2746133;-50
2022/05/30 06:19:08;;;;;;;;;8.00;8.00;;;;;16.96;66.39;99127.63;6287822;20;2750312;-52
2022/05/30 06:21:36;;;;;;;;;7.00;6.50;;;;;17.14;64.95;99131.25;6289409;20;2735671;-50
2022/05/30 06:24:05;;;;;;;;;8.00;6.00;;;;;17.32;66.59;99134.88;6289472;20;2623159;-47
2022/05/30 06:26:33;;;;;;;;;6.67;6.67;;;;;16.68;66.04;99132.94;6288388;20;3448165;-47
2022/05/30 06:29:03;;;;;;;;;8.20;7.20;;;;;17.06;65.74;99123.88;6311535;20;2746282;-48
2022/05/30 06:31:34;;;;;;;;;6.00;6.00;;;;;17.44;63.62;99127.38;6327849;20;3453375;-53
2022/05/30 06:34:02;;;;;;;;;6.50;6.00;;;;;17.57;61.70;99132.44;5580251;20;2742002;-52
2022/05/30 06:36:31;;;;;;;;;5.50;5.50;;;;;18.12;61.09;99126.06;6286484;20;2737794;-56
2022/05/30 06:38:59;;;;;;;;;5.00;5.00;;;;;18.95;61.40;99128.34;6288253;20;2746494;-54
2022/05/30 06:41:32;;;;;;;;;6.00;6.00;;;;;18.17;60.12;99118.28;6289873;20;2736765;-55
2022/05/30 06:44:07;;;;;;;;;6.25;6.25;;;;;18.62;60.11;99115.38;6311024;20;2648147;-56
2022/05/30 06:46:38;;;;;;;;;6.86;6.14;;;;;18.67;60.12;99114.91;6359946;20;3449222;-54
2022/05/30 06:49:08;;;;;;;;;6.00;6.00;;;;;19.17;58.97;99116.91;6340782;20;2748224;-56
2022/05/30 06:51:37;;;;;;;;;5.00;5.00;;;;;19.56;57.83;99120.94;6319419;20;2735705;-53
2022/05/30 06:54:07;;;;;;;;;7.50;4.50;;;;;19.38;58.06;99129.22;6291130;20;2737767;-54
2022/05/30 06:59:34;;;;;;;;;4.00;4.00;;;;;19.55;56.35;99138.31;6286389;20;2746074;-54
2022/05/30 07:02:04;;;;;;;;;3.00;3.00;;;;;19.15;55.63;99145.31;6291021;20;2752343;-50
2022/05/30 07:04:35;;;;;;;;;3.80;3.80;;;;;19.68;55.65;99146.91;6312310;20;2731520;-54
2022/05/30 07:07:10;;;;;;;;;6.00;6.00;;;;;20.56;53.44;99135.41;6320862;20;2727379;-53
2022/05/30 07:09:40;;;;;;;;;3.60;3.60;;;;;21.11;51.57;99134.59;6311149;20;2743058;-52
2022/05/30 07:12:09;;;;;;;;;4.33;4.33;;;;;20.92;51.74;99138.59;6317432;20;2748153;-53
2022/05/30 07:14:38;;;;;;;;;6.00;4.67;;;;;20.47;50.87;99144.59;6318194;20;2748256;-54
2022/05/30 07:17:11;;;;;;;;;3.67;3.67;;;;;20.66;51.19;99147.00;6315029;20;2754477;-54
2022/05/30 07:19:39;;;;;;;;;4.00;4.00;;;;;20.39;51.68;99140.84;6314726;20;2754463;-53
2022/05/30 07:22:10;;;;;;;;;3.67;3.67;;;;;22.28;48.67;99154.69;6317574;20;2746099;-50
2022/05/30 07:24:38;;;;;;;;;4.00;4.00;;;;;22.21;46.15;99152.88;6318594;20;2752374;-54
2022/05/30 07:27:07;;;;;;;;;4.33;3.00;;;;;22.00;49.05;99148.88;6317210;20;2743059;-56
2022/05/30 07:29:36;;;;;;;;;4.00;4.00;;;;;21.43;47.44;99139.13;6339499;20;2634687;-57
2022/05/30 07:32:05;;;;;;;;;6.00;3.00;;;;;20.39;50.96;99138.13;6314940;20;2748181;-56
2022/05/30 07:34:37;;;;;;;;;3.67;3.67;;;;;21.34;48.09;99144.78;6320792;20;2742955;-55
2022/05/30 07:37:07;;;;;;;;;4.20;3.00;;;;;21.38;47.63;99143.41;6344918;20;2752471;-54
2022/05/30 07:39:39;;;;;;;;;4.00;4.00;;;;;20.50;48.20;99147.81;6293890;20;2638228;-57
2022/05/30 07:42:10;;;;;;;;;4.00;4.00;;;;;20.74;50.48;99138.78;6324668;20;2747124;-53
2022/05/30 07:44:38;;;;;;;;;3.00;3.00;;;;;20.52;48.17;99144.94;6322226;20;2739851;-54
2022/05/30 07:47:07;;;;;;;;;5.33;3.00;;;;;21.29;47.88;99147.19;6324089;20;2744037;-53
2022/05/30 07:49:35;;;;;;;;;3.67;3.67;;;;;19.47;50.79;99150.88;6321558;20;2743994;-54
2022/05/30 07:52:05;;;;;;;;;3.00;3.00;;;;;18.93;50.39;99150.31;6322872;20;2735671;-52
2022/05/30 07:54:35;;;;;;;;;3.00;3.00;;;;;20.83;47.99;99142.38;6321923;20;2731520;-54
2022/05/30 07:57:07;;;;;;;;;4.40;3.80;;;;;21.04;47.64;99148.13;6345287;20;2750320;-55
2022/05/30 07:59:36;;;;;;;;;5.00;5.00;;;;;19.67;52.83;99150.66;6312087;20;2744007;-56
2022/05/30 08:02:07;;;;;;;;;4.20;4.20;;;;;20.68;48.65;99149.56;6346329;20;2750328;-52
2022/05/30 08:04:37;;;;;;;;;5.40;4.00;;;;;21.63;46.99;99161.41;6340005;20;2748191;-54
2022/05/30 08:07:06;;;;;;;;;5.40;4.00;;;;;21.69;45.40;99159.81;6314937;20;2749721;-53
2022/05/30 08:09:36;;;;;;;;;4.00;4.00;;;;;22.03;45.21;99159.44;6290848;20;2735807;-57
2022/05/30 08:12:06;;;;;;;;;4.00;4.00;;;;;22.21;45.69;99161.06;6343940;20;2743014;-53
2022/05/30 08:14:35;;;;;;;;;4.80;4.80;;;;;21.39;46.52;99154.16;6345008;20;2743990;-51
2022/05/30 08:17:07;;;;;;;;;4.00;4.00;;;;;21.09;47.31;99153.06;6314524;20;2731515;-53
2022/05/30 08:19:35;;;;;;;;;5.00;5.00;;;;;20.90;47.23;99154.28;6322820;20;2747115;-52
2022/05/30 08:22:22;;;;;;;;;3.00;3.00;;;;;20.45;48.18;99157.53;6342380;20;2752380;-52
2022/05/30 08:24:52;;;;;;;;;2.00;2.00;;;;;19.66;49.30;99154.34;6292307;20;2744045;-57
2022/05/30 08:27:22;;;;;;;;;4.00;3.00;;;;;20.76;46.59;99163.19;6344150;20;2734661;-55
2022/05/30 08:29:51;;;;;;;;;3.67;3.67;;;;;21.20;46.92;99160.03;6322453;20;2755533;-56
2022/05/30 08:32:20;;;;;;;;;3.40;3.40;;;;;20.24;47.96;99161.63;6344534;20;2746174;-57
2022/05/30 08:34:50;;;;;;;;;4.20;4.20;;;;;21.75;46.63;99166.44;6343604;20;2730527;-54
2022/05/30 08:37:18;;;;;;;;;3.67;3.67;;;;;21.50;45.70;99172.03;6321364;20;2755459;-47
2022/05/30 08:42:54;;;;;;;;;4.00;4.00;;;;;21.52;48.76;99171.88;6313921;20;2779454;-49
2022/05/30 08:45:25;;;;;;;;;5.20;4.20;;;;;20.88;48.57;99177.31;6337678;20;2741949;-52
2022/05/30 08:47:58;;;;;;;;;4.67;4.67;;;;;20.80;48.19;99176.31;6317476;20;2746109;-52
2022/05/30 08:50:50;;;;;;;;;4.67;4.67;;;;;20.06;47.35;99177.28;6320871;20;2748203;-52
2022/05/30 08:53:48;;;;;;;;;5.00;5.00;;;;;19.85;48.71;99186.78;6318374;20;2742017;-54
2022/05/30 08:56:34;;;;;;;;;8.00;6.20;;;;;20.07;48.52;99187.19;6342456;20;2740955;-52
2022/05/30 08:59:36;;;;;;;;;9.00;5.80;;;;;19.85;50.87;99192.25;6341857;20;2748275;-51
2022/05/30 09:02:30;;;;;;;;;8.00;6.00;;;;;20.55;47.73;99186.38;6341527;20;2740918;-49
2022/05/30 09:05:24;;;;;;;;;5.00;4.20;;;;;20.13;47.42;99183.78;6343603;20;2738818;-50
2022/05/30 09:08:52;;;;;;;;;4.60;4.60;;;;;20.38;48.69;99188.22;6344487;20;2746170;-53
2022/05/30 09:11:46;;;;;;;;;6.33;3.33;;;;;20.25;48.08;99193.34;6321291;20;2754591;-53
2022/05/30 09:14:32;;;;;;;;;6.80;5.80;;;;;21.36;44.81;99180.97;6344136;20;2739851;-57
2022/05/30 09:17:09;;;;;;;;;5.33;4.67;;;;;21.55;45.18;99180.56;6320346;20;2738829;-55
2022/05/30 09:19:40;;;;;;;;;6.60;5.00;;;;;22.32;44.71;99182.53;6342387;20;2737897;-55
2022/05/30 09:22:10;;;;;;;;;5.00;5.00;;;;;22.73;42.18;99185.78;6320376;20;2748170;-49
2022/05/30 09:25:55;;;;;;;;;7.00;5.00;;;;;22.49;42.27;99196.94;6343139;20;2742002;-49
2022/05/30 09:27:33;;;;;;;;;5.60;5.60;;;;;20.89;43.62;99179.03;6341998;20;2738956;-52
2022/05/30 09:30:06;;;;;;;;;5.40;5.20;;;;;21.16;44.64;99180.50;6310414;20;2735734;-48
2022/05/30 09:33:26;;;;;;;;;6.80;5.60;;;;;20.80;44.34;99176.31;6342147;20;2734634;-52
2022/05/30 09:36:28;;;;;;;;;4.33;4.33;;;;;21.18;45.00;99190.22;6318406;20;2739846;-50
2022/05/30 09:39:06;;;;;;;;;5.00;5.00;;;;;20.76;45.89;99199.50;6320252;20;2745194;-47
2022/05/30 09:41:39;;;;;;;;;6.40;5.40;;;;;20.92;44.17;99195.06;6342281;20;2742982;-49
2022/05/30 09:44:17;;;;;;;;;4.20;4.20;;;;;21.69;43.97;99193.47;6343339;20;2729484;-47
2022/05/30 09:47:16;;;;;;;;;3.60;3.60;;;;;22.09;43.48;99193.41;6343751;20;2737753;-48
2022/05/30 09:49:55;;;;;;;;;5.00;5.00;;;;;21.46;44.13;99198.03;6316618;20;2748182;-46
2022/05/30 09:52:34;;;;;;;;;5.00;5.00;;;;;21.08;43.46;99195.00;6341567;20;2739904;-46
2022/05/30 09:55:30;;;;;;;;;5.00;5.00;;;;;21.59;43.00;99191.97;6343059;20;2735686;-46
2022/05/30 09:58:05;;;;;;;;;4.33;4.33;;;;;22.10;43.07;99195.13;6316134;20;2748273;-48
2022/05/30 10:00:54;;;;;;;;;4.00;4.00;;;;;21.45;43.97;99199.88;6320444;20;2739864;-45
2022/05/30 10:03:38;;;;;;;;;5.00;5.00;;;;;22.22;40.86;99195.59;6343740;20;2743165;-45
2022/05/30 10:06:27;;;;;;;;;4.40;4.40;;;;;22.41;42.73;99200.59;6340223;20;2734701;-49
2022/05/30 10:09:28;;;;;;;;;5.00;5.00;;;;;22.18;42.48;99205.16;6319896;20;2740016;-50
2022/05/30 10:11:58;;;;;;;;;4.67;4.00;;;;;21.51;42.43;99211.97;6314720;20;2751328;-46
2022/05/30 10:14:39;;;;;;;;;5.60;5.00;;;;;21.61;42.17;99209.03;6342940;20;2739961;-46
2022/05/30 10:17:33;;;;;;;;;5.00;5.00;;;;;23.10;40.84;99202.41;6317854;20;2745043;-47
2022/05/30 10:20:14;;;;;;;;;6.80;5.20;;;;;22.77;42.96;99198.03;6342801;20;2736759;-50
2022/05/30 10:30:47;;;;;;;;;4.80;4.80;;;;;21.88;43.67;99207.72;6340451;20;2741931;-48
2022/05/30 10:34:36;;;;;;;;;5.80;5.60;;;;;21.16;44.43;99208.66;6338149;20;2744125;-49
2022/05/30 10:37:27;;;;;;;;;5.00;5.00;;;;;23.18;40.90;99211.38;6306258;20;2730609;-50
2022/05/30 10:40:30;;;;;;;;;6.60;6.60;;;;;22.76;43.24;99195.50;6340612;20;2739900;-48
2022/05/30 10:43:26;;;;;;;;;5.00;5.00;;;;;23.36;40.74;99211.00;6339769;20;2730456;-49
2022/05/30 10:46:10;;;;;;;;;12.00;12.00;;;;;22.42;42.84;99198.69;6314601;20;3523140;-48
2022/05/30 10:49:00;;;;;;;;;5.60;5.60;;;;;21.55;44.26;99196.94;6307792;20;2748819;-48
2022/05/30 10:52:11;;;;;;;;;6.20;6.20;;;;;21.41;44.21;99208.63;6339585;20;2737834;-46
2022/05/30 10:55:00;;;;;;;;;7.00;6.00;;;;;23.26;41.52;99206.84;6341605;20;2738853;-48
2022/05/30 10:58:02;;;;;;;;;7.00;6.00;;;;;23.10;42.64;99202.41;6307196;20;2742054;-47
2022/05/30 11:00:48;;;;;;;;;8.67;8.67;;;;;23.11;42.20;99206.81;6287505;20;2748156;-48
2022/05/30 11:03:36;;;;;;;;;7.20;4.80;;;;;23.23;41.02;99213.56;6339066;20;2737833;-46
2022/05/30 11:06:18;;;;;;;;;4.40;4.40;;;;;22.90;40.92;99202.88;6307526;20;2734646;-46
2022/05/30 11:09:34;;;;;;;;;5.00;5.00;;;;;22.49;43.31;99206.00;6343131;20;2747248;-51
2022/05/30 11:12:38;;;;;;;;;6.00;6.00;;;;;22.89;43.18;99212.16;6310698;20;2746218;-48
2022/05/30 11:15:45;;;;;;;;;7.00;7.00;;;;;21.89;43.92;99201.22;6314261;20;2745052;-46
2022/05/30 11:18:44;;;;;;;;;5.60;5.60;;;;;23.04;41.70;99204.00;6315395;20;2739888;-47
2022/05/30 11:22:05;;;;;;;;;6.60;6.00;;;;;23.11;42.29;99204.09;6344139;20;2738866;-46
2022/05/30 11:24:37;;;;;;;;;6.40;6.00;;;;;22.23;42.04;99200.88;6338589;20;2741938;-47
2022/05/30 11:27:36;;;;;;;;;5.80;5.80;;;;;22.51;41.46;99197.59;6343363;20;2742961;-49
2022/05/30 11:31:24;;;;;;;;;5.00;5.00;;;;;22.85;41.61;99199.00;6344634;20;2737089;-46
2022/05/30 11:34:33;;;;;;;;;6.60;5.60;;;;;23.33;41.52;99208.66;6344823;20;2741918;-50
2022/05/30 11:38:04;;;;;;;;;4.20;4.20;;;;;23.36;42.90;99218.38;6346224;20;2748182;-50
2022/05/30 11:41:13;;;;;;;;;7.80;6.80;;;;;22.10;43.80;99201.44;6344546;20;2730469;-50
2022/05/30 11:44:22;;;;;;;;;2.40;2.00;;;;;22.38;43.33;99203.69;6344771;20;2730503;-51
2022/05/30 11:47:31;;;;;;;;;6.00;6.00;;;;;22.03;43.84;99213.28;6349280;20;2743105;-48
2022/05/30 11:50:12;;;;;;;;;8.60;5.60;;;;;21.73;44.52;99218.56;6316944;20;2741945;-46
2022/05/30 11:53:44;;;;;;;;;6.20;6.00;;;;;21.03;45.48;99214.63;6344061;20;2744158;-50
2022/05/30 11:56:39;;;;;;;;;5.60;5.60;;;;;20.77;47.18;99223.06;6344487;20;2742997;-52
2022/05/30 11:59:58;;;;;;;;;5.00;5.00;;;;;21.31;46.34;99222.44;6341513;20;2740871;-50
2022/05/30 12:02:51;;;;;;;;;4.00;4.00;;;;;21.17;48.00;99213.09;6344518;20;2741920;-45
2022/05/30 12:06:12;;;;;;;;;6.60;6.60;;;;;21.29;46.92;99209.97;6342217;20;2734630;-45
2022/05/30 12:09:00;;;;;;;;;6.80;4.60;;;;;20.98;46.65;99208.00;6339686;20;2749250;-47
2022/05/30 12:11:58;;;;;;;;;5.00;5.00;;;;;21.58;45.75;99218.44;6318749;20;2736740;-49
2022/05/30 12:14:53;;;;;;;;;6.00;6.00;;;;;20.89;46.08;99217.22;6320211;20;2740866;-45
2022/05/30 12:24:19;;;;;;;;;8.00;7.00;;;;;20.95;46.11;99222.84;6311548;20;2748311;-47
2022/05/30 12:27:03;;;;;;;;;7.20;5.40;;;;;20.93;45.81;99218.56;6311871;20;2734695;-45